Time;durP1;ratioP1;P1;durP2;ratioP2;P2;SDS_P1;SDS_P2;PMS_P1;PMS_P2;Temp;Humidity;BMP_temperature;BMP_pressure;BME280_temperature;BME280_humidity;BME280_pressure;Samples;Min_cycle;Max_cycle;Signal;HPM_P1;HPM_P2
2023/08/11 00:00:21;;;;;;;7.18;3.80;;;;;;;14.78;71.71;101536.00;7398111;19;20358;-69
2023/08/11 00:02:50;;;;;;;6.88;4.40;;;;;;;14.73;71.80;101543.19;7398954;19;20007;-69
2023/08/11 00:05:20;;;;;;;6.28;4.43;;;;;;;14.69;72.14;101540.69;7398007;19;20021;-70
2023/08/11 00:07:50;;;;;;;7.13;4.18;;;;;;;14.60;72.18;101531.19;7399977;19;20346;-69
2023/08/11 00:10:19;;;;;;;7.20;4.30;;;;;;;14.59;72.69;101538.22;7397436;19;20010;-69
2023/08/11 00:12:50;;;;;;;7.53;3.88;;;;;;;14.54;72.67;101537.47;7400012;19;20035;-70
2023/08/11 00:15:19;;;;;;;7.43;4.22;;;;;;;14.49;72.86;101544.66;7397297;19;20018;-70
2023/08/11 00:17:47;;;;;;;8.10;4.68;;;;;;;14.44;73.21;101549.19;7397770;19;20014;-70
2023/08/11 00:20:16;;;;;;;7.57;4.68;;;;;;;14.41;73.44;101546.63;7399439;19;20074;-70
2023/08/11 00:22:44;;;;;;;8.27;3.90;;;;;;;14.38;73.56;101544.06;7397743;19;20018;-69
2023/08/11 00:25:13;;;;;;;8.60;4.32;;;;;;;14.34;73.73;101549.44;7397106;19;20368;-70
2023/08/11 00:27:42;;;;;;;5.82;3.80;;;;;;;14.31;73.81;101549.47;7397435;19;20014;-70
2023/08/11 00:30:14;;;;;;;7.15;4.13;;;;;;;14.29;74.18;101550.44;7399150;19;20074;-70
2023/08/11 00:32:43;;;;;;;6.68;4.40;;;;;;;14.26;74.18;101547.88;7397458;19;20031;-70
2023/08/11 00:35:11;;;;;;;6.60;4.10;;;;;;;14.12;74.21;101533.22;7398535;19;20023;-70
2023/08/11 00:37:40;;;;;;;7.80;4.40;;;;;;;14.19;74.33;101544.50;7396659;19;20372;-69
2023/08/11 00:40:11;;;;;;;7.85;4.38;;;;;;;14.16;74.60;101550.72;7398692;19;20015;-70
2023/08/11 00:42:40;;;;;;;6.85;4.45;;;;;;;14.12;74.66;101548.22;7396436;19;20486;-70
2023/08/11 00:45:18;;;;;;;8.25;4.43;;;;;;;14.09;75.15;101548.25;7404891;19;20007;-70
2023/08/11 00:47:48;;;;;;;7.53;4.72;;;;;;;14.06;75.07;101543.06;7410872;19;20013;-70
2023/08/11 00:50:18;;;;;;;10.05;4.47;;;;;;;14.02;75.10;101543.13;7407699;19;20010;-70
2023/08/11 00:52:48;;;;;;;8.60;4.13;;;;;;;13.99;75.38;101555.53;7400470;19;20074;-70
2023/08/11 00:55:18;;;;;;;7.75;4.60;;;;;;;13.96;75.47;101558.25;7399163;19;20010;-69
2023/08/11 00:57:48;;;;;;;7.95;5.15;;;;;;;13.93;75.75;101555.69;7397360;19;20019;-69
2023/08/11 01:00:19;;;;;;;6.60;5.38;;;;;;;13.89;75.51;101554.88;7396168;19;20027;-69
2023/08/11 01:02:47;;;;;;;7.63;4.75;;;;;;;13.87;75.84;101550.53;7398538;19;20364;-69
2023/08/11 01:05:19;;;;;;;9.45;4.63;;;;;;;13.84;75.89;101551.47;7396216;19;20501;-69
2023/08/11 01:08:03;;;;;;;6.90;5.07;;;;;;;13.80;76.16;101550.69;7396937;19;20015;-69
2023/08/11 01:10:39;;;;;;;6.60;4.80;;;;;;;13.77;76.36;101550.72;7396003;19;20477;-69
2023/08/11 01:13:38;;;;;;;8.68;5.32;;;;;;;13.74;76.13;101549.97;7392000;19;20010;-65
2023/08/11 01:16:16;;;;;;;8.18;5.18;;;;;;;13.70;76.39;101557.06;7397283;19;20105;-66
2023/08/11 01:18:44;;;;;;;7.47;5.30;;;;;;;13.67;76.53;101554.47;7395354;19;20423;-65
2023/08/11 01:21:15;;;;;;;7.53;5.53;;;;;;;13.62;76.76;101551.97;7397473;19;20073;-66
2023/08/11 01:23:47;;;;;;;7.95;5.57;;;;;;;13.60;77.00;101552.91;7396668;19;20015;-66
2023/08/11 01:26:16;;;;;;;7.47;5.40;;;;;;;13.58;77.04;101552.06;7397702;19;20023;-66
2023/08/11 01:28:44;;;;;;;7.53;5.00;;;;;;;13.56;77.28;101553.84;7397225;19;20011;-66
2023/08/11 01:31:13;;;;;;;8.82;5.65;;;;;;;13.53;77.43;101554.78;7396735;19;20070;-65
2023/08/11 01:33:41;;;;;;;9.43;5.10;;;;;;;13.52;77.75;101555.66;7394903;19;20071;-65
2023/08/11 01:36:10;;;;;;;10.50;5.47;;;;;;;13.50;77.84;101555.72;7396104;19;20007;-65
2023/08/11 01:38:39;;;;;;;6.85;5.75;;;;;;;13.50;78.00;101557.50;7396818;19;20029;-65
2023/08/11 01:41:11;;;;;;;9.95;5.70;;;;;;;13.48;78.10;101552.25;7396498;19;20485;-66
2023/08/11 01:43:41;;;;;;;7.95;5.07;;;;;;;13.47;78.51;101550.50;7396157;19;20035;-66
2023/08/11 01:46:12;;;;;;;7.63;6.07;;;;;;;13.48;78.41;101551.38;7396679;19;20015;-66
2023/08/11 01:48:41;;;;;;;7.53;5.35;;;;;;;13.49;78.79;101553.97;7397002;19;20085;-66
2023/08/11 01:51:10;;;;;;;9.75;6.45;;;;;;;13.50;78.87;101555.72;7396419;19;20018;-66
2023/08/11 01:53:38;;;;;;;6.63;5.50;;;;;;;13.50;78.83;101553.06;7395222;19;20509;-66
2023/08/11 01:56:10;;;;;;;6.35;5.07;;;;;;;13.52;79.07;101553.91;7395987;19;20039;-66
2023/08/11 01:58:40;;;;;;;10.77;5.78;;;;;;;13.54;79.20;101555.66;7396610;19;20069;-66
2023/08/11 02:01:09;;;;;;;10.50;5.13;;;;;;;13.55;79.05;101552.09;7396236;19;20010;-66
2023/08/11 02:03:38;;;;;;;9.63;6.03;;;;;;;13.58;79.23;101557.31;7394821;19;20017;-66
2023/08/11 02:06:07;;;;;;;7.07;5.93;;;;;;;13.59;79.21;101559.91;7395608;19;20051;-66
2023/08/11 02:08:35;;;;;;;10.73;5.47;;;;;;;13.62;79.10;101566.91;7395559;19;20505;-66
2023/08/11 02:11:04;;;;;;;8.93;5.78;;;;;;;13.61;79.06;101560.75;7395429;19;20011;-66
2023/08/11 02:13:36;;;;;;;8.52;5.30;;;;;;;13.62;78.92;101557.22;7394087;19;20504;-66
2023/08/11 02:16:04;;;;;;;10.05;5.28;;;;;;;13.62;79.19;101553.72;7395829;19;20027;-66
2023/08/11 02:18:32;;;;;;;9.32;6.20;;;;;;;13.62;78.84;101556.34;7395217;19;20070;-66
2023/08/11 02:21:02;;;;;;;8.98;4.97;;;;;;;13.64;79.00;101549.28;7395083;19;20033;-65
2023/08/11 02:23:30;;;;;;;10.40;5.72;;;;;;;13.64;79.06;101547.50;7394785;19;20014;-65
2023/08/11 02:25:59;;;;;;;13.30;5.78;;;;;;;13.66;79.05;101550.97;7395419;19;20007;-65
2023/08/11 02:28:28;;;;;;;7.47;4.93;;;;;;;13.66;79.05;101545.72;7395390;19;20045;-66
2023/08/11 02:31:00;;;;;;;10.25;5.25;;;;;;;13.69;79.24;101547.41;7395027;19;20049;-65
2023/08/11 02:33:28;;;;;;;5.20;4.60;;;;;;;13.68;79.15;101546.53;7395031;19;20028;-67
2023/08/11 02:35:57;;;;;;;7.25;4.57;;;;;;;13.71;78.87;101548.25;7395086;19;20023;-65
2023/08/11 02:38:25;;;;;;;7.43;4.13;;;;;;;13.71;79.17;101550.91;7392581;19;20074;-66
2023/08/11 02:40:54;;;;;;;5.75;4.13;;;;;;;13.70;78.92;101557.06;7394808;19;20011;-66
2023/08/11 02:43:22;;;;;;;6.95;4.40;;;;;;;13.67;79.01;101555.38;7394129;19;20024;-66
2023/08/11 02:45:51;;;;;;;5.53;4.18;;;;;;;13.68;78.85;101561.50;7394809;19;20431;-65
2023/08/11 02:48:22;;;;;;;7.20;4.38;;;;;;;13.66;78.91;101550.97;7394726;19;20015;-65
2023/08/11 02:50:50;;;;;;;6.68;4.40;;;;;;;13.66;78.89;101545.72;7395293;19;20079;-65
2023/08/11 02:53:19;;;;;;;5.28;4.35;;;;;;;13.68;79.03;101545.66;7393912;19;20080;-66
2023/08/11 02:55:47;;;;;;;6.70;4.13;;;;;;;13.69;79.08;101544.78;7394119;19;20070;-66
2023/08/11 02:58:16;;;;;;;6.95;4.63;;;;;;;13.70;79.03;101546.50;7392230;19;20506;-66
2023/08/11 03:00:46;;;;;;;6.25;4.25;;;;;;;13.70;78.93;101543.88;7394416;19;20018;-66
2023/08/11 03:03:15;;;;;;;5.90;4.38;;;;;;;13.72;78.87;101542.06;7393286;19;20025;-65
2023/08/11 03:05:47;;;;;;;6.10;4.63;;;;;;;13.73;78.70;101541.16;7392426;19;20031;-65
2023/08/11 03:08:15;;;;;;;6.95;4.82;;;;;;;13.74;78.84;101539.41;7394613;19;20015;-65
2023/08/11 03:10:44;;;;;;;7.93;4.85;;;;;;;13.75;79.02;101542.00;7391764;19;20082;-65
2023/08/11 03:13:12;;;;;;;6.70;4.38;;;;;;;13.77;78.89;101547.25;7393670;19;20018;-66
2023/08/11 03:15:41;;;;;;;5.60;4.30;;;;;;;13.78;78.91;101535.78;7398123;19;20513;-65
2023/08/11 03:18:09;;;;;;;8.00;5.45;;;;;;;13.80;78.76;101547.16;7398666;19;20018;-65
2023/08/11 03:20:38;;;;;;;6.32;4.38;;;;;;;13.80;78.81;101539.25;7398349;19;20505;-65
2023/08/11 03:23:09;;;;;;;6.13;3.85;;;;;;;13.82;78.62;101545.38;7400650;19;20010;-65
2023/08/11 03:25:38;;;;;;;9.70;5.07;;;;;;;13.82;78.79;101548.84;7401758;19;20011;-65
2023/08/11 03:28:07;;;;;;;7.97;4.80;;;;;;;13.83;78.87;101541.81;7400802;19;20093;-65
2023/08/11 03:30:35;;;;;;;6.80;4.30;;;;;;;13.84;78.45;101547.06;7401059;19;20043;-65
2023/08/11 03:33:04;;;;;;;6.10;4.10;;;;;;;13.85;78.63;101551.44;7400343;19;20094;-66
2023/08/11 03:35:35;;;;;;;7.97;4.25;;;;;;;13.85;78.46;101540.88;7400579;19;20014;-65
2023/08/11 03:38:03;;;;;;;6.00;4.22;;;;;;;13.87;78.62;101547.91;7397854;19;20023;-66
2023/08/11 03:40:35;;;;;;;8.68;4.47;;;;;;;13.88;78.55;101544.38;7400677;19;20023;-65
2023/08/11 03:43:04;;;;;;;5.13;3.83;;;;;;;13.89;78.51;101546.09;7398283;19;20020;-65
2023/08/11 03:45:32;;;;;;;5.63;4.82;;;;;;;13.89;78.26;101539.06;7399837;19;20092;-65
2023/08/11 03:48:01;;;;;;;15.73;4.95;;;;;;;13.90;78.51;101537.28;7400588;19;20023;-64
2023/08/11 03:50:29;;;;;;;5.25;3.75;;;;;;;13.90;78.32;101542.53;7400291;19;20422;-64
2023/08/11 03:52:58;;;;;;;6.65;4.25;;;;;;;13.91;78.38;101542.50;7399479;19;20018;-64
2023/08/11 03:55:26;;;;;;;5.80;4.03;;;;;;;13.92;78.29;101540.75;7398049;19;20031;-66
2023/08/11 03:57:57;;;;;;;5.65;4.15;;;;;;;13.92;78.10;101540.75;7397881;19;20018;-66
2023/08/11 04:00:26;;;;;;;5.60;3.80;;;;;;;13.93;77.91;101534.59;7400784;19;20014;-65
2023/08/11 04:02:54;;;;;;;5.53;3.75;;;;;;;13.94;77.98;101541.56;7400100;19;20010;-65
2023/08/11 04:05:24;;;;;;;8.77;4.30;;;;;;;13.95;77.84;101538.03;7399407;19;20481;-64
2023/08/11 04:07:53;;;;;;;6.75;4.18;;;;;;;13.95;77.74;101540.66;7399534;19;20027;-64
2023/08/11 04:10:21;;;;;;;6.32;4.30;;;;;;;13.96;77.88;101542.41;7399764;19;20078;-64
2023/08/11 04:12:50;;;;;;;9.70;4.40;;;;;;;13.98;77.79;101548.53;7398988;19;20363;-65
2023/08/11 04:15:21;;;;;;;7.90;3.97;;;;;;;13.98;77.77;101541.47;7396930;19;20010;-64
2023/08/11 04:17:50;;;;;;;6.82;3.97;;;;;;;13.98;77.57;101540.63;7397757;19;20022;-64
2023/08/11 04:20:19;;;;;;;5.38;4.35;;;;;;;13.99;77.77;101540.56;7399439;19;20018;-64
2023/08/11 04:22:47;;;;;;;7.45;3.90;;;;;;;13.99;77.70;101539.72;7398616;19;20351;-65
2023/08/11 04:25:16;;;;;;;7.47;4.13;;;;;;;14.00;77.85;101544.06;7393740;19;20006;-66
2023/08/11 04:27:44;;;;;;;7.72;3.97;;;;;;;14.01;77.47;101551.09;7398753;19;20003;-65
2023/08/11 04:30:15;;;;;;;5.20;4.07;;;;;;;13.99;77.58;101543.22;7399018;19;20019;-65
2023/08/11 04:32:46;;;;;;;7.18;4.18;;;;;;;14.01;77.59;101551.97;7395905;19;20024;-65
2023/08/11 04:35:14;;;;;;;6.28;3.63;;;;;;;14.01;77.63;101559.00;7399291;19;20073;-65
2023/08/11 04:37:43;;;;;;;8.30;4.57;;;;;;;14.00;77.85;101557.25;7397199;19;20006;-65
2023/08/11 04:40:13;;;;;;;7.00;4.10;;;;;;;13.99;77.63;101552.91;7395905;19;20015;-65
2023/08/11 04:42:42;;;;;;;4.45;3.67;;;;;;;13.99;77.97;101555.53;7398093;19;20010;-66
2023/08/11 04:45:14;;;;;;;5.32;4.43;;;;;;;13.99;78.04;101555.53;7396148;19;20074;-65
2023/08/11 04:47:45;;;;;;;6.15;3.85;;;;;;;14.00;78.05;101555.50;7398863;19;20015;-64
2023/08/11 04:50:14;;;;;;;5.80;4.13;;;;;;;14.00;77.85;101558.16;7398470;19;20364;-64
2023/08/11 04:52:42;;;;;;;6.80;4.32;;;;;;;14.01;77.80;101559.88;7397412;19;20446;-65
2023/08/11 04:55:12;;;;;;;9.38;4.05;;;;;;;14.03;77.84;101570.41;7395663;19;20011;-64
2023/08/11 04:57:41;;;;;;;5.78;3.92;;;;;;;14.07;77.69;101571.19;7395564;19;20007;-65
2023/08/11 05:00:13;;;;;;;8.50;4.28;;;;;;;14.08;77.68;101571.16;7397657;19;20075;-64
2023/08/11 05:02:43;;;;;;;6.22;4.43;;;;;;;14.10;77.54;101566.72;7395822;19;20018;-65
2023/08/11 05:05:15;;;;;;;5.70;3.72;;;;;;;14.13;77.35;101561.34;7397895;19;20010;-65
2023/08/11 05:07:44;;;;;;;5.60;3.58;;;;;;;14.15;77.47;101570.13;7397982;19;20356;-67
2023/08/11 05:10:13;;;;;;;5.68;3.80;;;;;;;14.20;77.07;101569.13;7397335;19;20007;-67
2023/08/11 05:12:41;;;;;;;6.07;3.90;;;;;;;14.23;76.89;101577.84;7395296;19;20015;-67
2023/08/11 05:15:10;;;;;;;5.43;3.60;;;;;;;14.28;76.92;101572.44;7395166;19;20028;-66
2023/08/11 05:17:39;;;;;;;7.32;4.00;;;;;;;14.32;76.76;101568.84;7396118;19;20014;-67
2023/08/11 05:20:09;;;;;;;5.50;3.63;;;;;;;14.37;76.67;101574.88;7396899;19;20031;-66
2023/08/11 05:22:40;;;;;;;4.70;3.47;;;;;;;14.41;76.71;101578.31;7395701;19;20015;-66
2023/08/11 05:25:10;;;;;;;7.25;3.95;;;;;;;14.45;76.33;101582.59;7396624;19;20484;-66
2023/08/11 05:27:38;;;;;;;6.18;4.30;;;;;;;14.49;76.23;101584.25;7397025;19;20010;-66
2023/08/11 05:30:10;;;;;;;5.55;3.92;;;;;;;14.53;76.14;101574.50;7395298;19;20042;-66
2023/08/11 05:32:38;;;;;;;4.72;3.88;;;;;;;14.55;76.07;101576.19;7397223;19;20079;-67
2023/08/11 05:35:08;;;;;;;7.20;3.42;;;;;;;14.58;76.07;101578.72;7394061;19;20416;-67
2023/08/11 05:37:41;;;;;;;6.18;4.38;;;;;;;14.61;76.16;101583.97;7396238;19;20019;-67
2023/08/11 05:40:11;;;;;;;7.15;3.58;;;;;;;14.62;76.28;101571.59;7397027;19;20024;-67
2023/08/11 05:42:40;;;;;;;5.47;3.30;;;;;;;14.64;75.85;101572.44;7396199;19;20024;-67
2023/08/11 05:45:10;;;;;;;6.18;4.10;;;;;;;14.66;76.10;101576.81;7395847;19;20018;-66
2023/08/11 05:47:38;;;;;;;4.88;3.40;;;;;;;14.69;75.97;101578.50;7395949;19;20017;-66
2023/08/11 05:50:08;;;;;;;6.05;3.38;;;;;;;14.72;75.69;101569.63;7396002;19;20069;-66
2023/08/11 05:52:40;;;;;;;10.07;4.22;;;;;;;14.75;75.61;101580.13;7395664;19;20020;-66
2023/08/11 05:55:09;;;;;;;4.80;3.25;;;;;;;14.78;75.70;101575.63;7396066;19;20477;-66
2023/08/11 05:57:37;;;;;;;92.32;53.00;;;;;;;14.82;75.56;101572.00;7395738;19;20015;-67
2023/08/11 06:00:08;;;;;;;20.52;11.55;;;;;;;14.87;75.41;101573.66;7395290;19;20418;-66
2023/08/11 06:02:37;;;;;;;9.07;6.18;;;;;;;14.90;75.18;101574.44;7395936;19;20007;-66
2023/08/11 06:05:06;;;;;;;7.60;4.28;;;;;;;14.95;74.89;101580.47;7394114;19;20018;-66
2023/08/11 06:07:34;;;;;;;6.75;4.53;;;;;;;14.99;74.91;101586.53;7393926;19;20015;-67
2023/08/11 06:10:06;;;;;;;5.47;3.15;;;;;;;15.05;74.65;101589.03;7395264;19;20010;-67
2023/08/11 06:12:34;;;;;;;5.97;3.80;;;;;;;15.11;74.62;101590.63;7395584;19;20010;-67
2023/08/11 06:15:04;;;;;;;7.65;3.50;;;;;;;15.18;74.64;101591.31;7393896;19;20014;-66
2023/08/11 06:17:32;;;;;;;8.27;3.97;;;;;;;15.25;74.28;101590.25;7393171;19;20011;-67
2023/08/11 06:20:01;;;;;;;5.82;3.45;;;;;;;15.31;73.68;101588.28;7394700;19;20014;-67
2023/08/11 06:22:30;;;;;;;9.18;3.70;;;;;;;15.39;73.60;101587.22;7395158;19;20417;-67
2023/08/11 06:24:58;;;;;;;5.50;3.00;;;;;;;15.46;73.19;101581.69;7395059;19;20011;-67
2023/08/11 06:27:30;;;;;;;7.45;3.42;;;;;;;15.55;73.37;101592.94;7394981;19;20015;-67
2023/08/11 06:29:58;;;;;;;7.78;3.20;;;;;;;15.63;73.36;101590.91;7395177;19;20018;-68
2023/08/11 06:32:27;;;;;;;7.95;2.95;;;;;;;15.72;72.93;101592.44;7393280;19;20045;-67
2023/08/11 06:34:56;;;;;;;4.90;2.60;;;;;;;15.80;72.83;101598.38;7392528;19;20010;-66
2023/08/11 06:37:24;;;;;;;4.30;2.97;;;;;;;15.89;72.69;101589.31;7392398;19;20007;-67
2023/08/11 06:39:58;;;;;;;4.20;2.22;;;;;;;15.98;71.96;101596.97;7394321;19;20007;-67
2023/08/11 06:42:29;;;;;;;4.40;2.55;;;;;;;16.10;71.26;101590.44;7394767;19;20011;-66
2023/08/11 06:44:57;;;;;;;4.82;2.35;;;;;;;16.21;70.91;101592.72;7392592;19;20027;-67
2023/08/11 06:47:26;;;;;;;4.38;2.00;;;;;;;16.32;70.36;101593.25;7395108;19;20417;-67
2023/08/11 06:49:55;;;;;;;3.63;2.13;;;;;;;16.42;69.81;101597.34;7401980;19;20029;-67
2023/08/11 06:52:23;;;;;;;4.40;1.80;;;;;;;16.54;69.22;101603.16;7401539;19;20018;-67
2023/08/11 06:54:51;;;;;;;4.60;1.90;;;;;;;16.64;68.49;101604.56;7398869;19;20014;-67
2023/08/11 06:57:21;;;;;;;1.90;1.70;;;;;;;16.76;67.93;101608.59;7401512;19;20015;-67
2023/08/11 06:59:52;;;;;;;4.38;1.58;;;;;;;16.89;67.02;101595.78;7398191;19;20021;-66
2023/08/11 07:02:20;;;;;;;4.97;1.80;;;;;;;17.02;66.15;101607.75;7401995;19;20077;-67
2023/08/11 07:04:49;;;;;;;6.45;2.10;;;;;;;17.12;65.92;101605.59;7398672;19;20015;-66
2023/08/11 07:07:17;;;;;;;5.57;1.80;;;;;;;17.26;65.37;101610.41;7401085;19;20472;-66
2023/08/11 07:09:46;;;;;;;4.55;1.85;;;;;;;17.37;65.37;101608.25;7400885;19;20018;-66
2023/08/11 07:12:21;;;;;;;5.50;1.60;;;;;;;17.50;64.37;101611.34;7401733;19;20010;-66
2023/08/11 07:14:58;;;;;;;5.10;1.70;;;;;;;17.64;61.68;101616.13;7397509;19;20022;-66
2023/08/11 07:17:26;;;;;;;5.13;1.75;;;;;;;17.80;62.88;101599.63;7400460;19;20019;-66
2023/08/11 07:19:55;;;;;;;5.47;2.13;;;;;;;17.95;62.63;101600.84;7397792;19;20031;-66
2023/08/11 07:22:23;;;;;;;3.70;1.58;;;;;;;18.07;61.79;101603.88;7400421;19;20019;-66
2023/08/11 07:24:52;;;;;;;2.75;1.45;;;;;;;18.21;60.52;101608.63;7398050;19;20018;-66
2023/08/11 07:27:20;;;;;;;3.65;2.63;;;;;;;18.35;60.43;101607.19;7399995;19;20411;-67
2023/08/11 07:29:49;;;;;;;4.20;1.73;;;;;;;18.50;59.69;101611.91;7400261;19;20014;-67
2023/08/11 07:32:20;;;;;;;8.85;2.05;;;;;;;18.62;59.04;101607.84;7400226;19;20093;-67
2023/08/11 07:34:48;;;;;;;3.85;1.77;;;;;;;18.77;58.20;101613.47;7397505;19;20113;-67
2023/08/11 07:37:17;;;;;;;7.97;1.80;;;;;;;18.91;57.17;101616.44;7400254;19;20011;-70
2023/08/11 07:39:45;;;;;;;4.43;1.40;;;;;;;19.02;56.04;101619.50;7398542;19;20078;-67
2023/08/11 07:42:14;;;;;;;3.75;1.63;;;;;;;19.13;54.67;101624.34;7399927;19;20014;-66
2023/08/11 07:44:43;;;;;;;4.47;1.63;;;;;;;19.22;55.51;101620.38;7397110;19;20481;-67
2023/08/11 07:47:11;;;;;;;3.17;1.38;;;;;;;19.31;55.02;101622.66;7399478;19;20073;-66
2023/08/11 07:49:42;;;;;;;4.00;1.88;;;;;;;19.44;54.97;101627.44;7396255;19;20481;-66
2023/08/11 07:52:11;;;;;;;4.93;1.60;;;;;;;19.54;55.25;101632.25;7397335;19;20027;-67
2023/08/11 07:54:40;;;;;;;5.53;1.55;;;;;;;19.62;54.62;101633.72;7397335;19;20010;-66
2023/08/11 07:57:08;;;;;;;3.38;1.50;;;;;;;19.68;54.77;101636.94;7397123;19;20031;-65
2023/08/11 07:59:37;;;;;;;5.68;1.70;;;;;;;19.76;54.84;101628.59;7396413;19;20082;-66
2023/08/11 08:02:07;;;;;;;7.68;1.80;;;;;;;19.84;54.34;101636.25;7399722;19;20018;-66
2023/08/11 08:04:35;;;;;;;5.55;1.90;;;;;;;19.90;53.96;101641.31;7396933;19;20014;-66
2023/08/11 08:07:07;;;;;;;4.63;1.50;;;;;;;19.94;53.61;101639.38;7399422;19;20045;-66
2023/08/11 08:09:35;;;;;;;5.88;1.60;;;;;;;19.98;53.76;101630.28;7399502;19;20431;-67
2023/08/11 08:12:04;;;;;;;7.25;1.58;;;;;;;19.99;53.95;101637.34;7399313;19;20014;-67
2023/08/11 08:14:33;;;;;;;5.18;1.85;;;;;;;20.01;53.96;101633.69;7396920;19;20019;-69
2023/08/11 08:17:02;;;;;;;3.63;1.30;;;;;;;20.05;53.68;101636.22;7399072;19;20018;-66
2023/08/11 08:19:31;;;;;;;2.92;1.20;;;;;;;20.05;53.20;101634.41;7397295;19;20014;-68
2023/08/11 08:21:59;;;;;;;3.58;1.65;;;;;;;20.06;53.57;101636.13;7399069;19;20018;-66
2023/08/11 08:24:30;;;;;;;6.43;1.65;;;;;;;20.07;53.12;101624.56;7396469;19;20011;-69
2023/08/11 08:26:59;;;;;;;2.92;1.60;;;;;;;20.10;52.61;101634.19;7396755;19;20050;-66
2023/08/11 08:29:28;;;;;;;3.72;1.40;;;;;;;20.14;52.68;101630.44;7398903;19;20023;-66
2023/08/11 08:31:57;;;;;;;4.20;1.80;;;;;;;20.17;52.48;101632.97;7398808;19;20018;-67
2023/08/11 08:34:25;;;;;;;3.25;1.10;;;;;;;20.21;52.34;101629.22;7396411;19;20473;-66
2023/08/11 08:36:53;;;;;;;4.47;1.33;;;;;;;20.25;52.84;101630.78;7398615;19;20070;-67
2023/08/11 08:39:22;;;;;;;4.03;1.17;;;;;;;20.28;52.66;101622.66;7398346;19;20375;-66
2023/08/11 08:41:55;;;;;;;3.78;1.30;;;;;;;20.31;52.19;101619.84;7398042;19;20010;-67
2023/08/11 08:44:24;;;;;;;3.90;1.30;;;;;;;20.34;51.67;101627.66;7396423;19;20014;-67
2023/08/11 08:46:56;;;;;;;5.25;1.55;;;;;;;20.35;50.58;101634.72;7398226;19;20023;-67
2023/08/11 08:49:27;;;;;;;3.85;1.13;;;;;;;20.34;50.62;101635.66;7396580;19;20010;-66
2023/08/11 08:51:57;;;;;;;3.15;1.15;;;;;;;20.32;51.30;101640.22;7398424;19;20014;-66
2023/08/11 08:54:26;;;;;;;5.30;1.40;;;;;;;20.29;51.25;101637.69;7395791;19;20474;-66
2023/08/11 08:56:59;;;;;;;2.28;0.93;;;;;;;20.27;51.20;101636.03;7395919;19;20011;-66
2023/08/11 08:59:27;;;;;;;2.92;0.95;;;;;;;20.25;51.26;101636.13;7396687;19;20041;-67
2023/08/11 09:01:58;;;;;;;2.50;1.00;;;;;;;20.26;51.11;101629.84;7395223;19;20553;-68
2023/08/11 09:04:28;;;;;;;6.35;1.52;;;;;;;20.26;50.91;101629.00;7396313;19;20031;-68
2023/08/11 09:06:56;;;;;;;1.60;1.00;;;;;;;20.26;50.75;101637.00;7397438;19;20032;-67
2023/08/11 09:09:27;;;;;;;1.85;0.88;;;;;;;20.27;50.59;101628.91;7394818;19;20014;-68
2023/08/11 09:11:58;;;;;;;1.08;0.80;;;;;;;20.30;50.20;101619.91;7393258;19;20014;-67
2023/08/11 09:14:27;;;;;;;5.35;0.95;;;;;;;20.35;50.85;101629.38;7395123;19;20082;-67
2023/08/11 09:16:56;;;;;;;0.93;0.55;;;;;;;20.41;50.65;101627.38;7396909;19;20564;-66
2023/08/11 09:19:26;;;;;;;4.20;1.05;;;;;;;20.46;50.67;101625.31;7396565;19;20006;-66
2023/08/11 09:21:55;;;;;;;1.35;0.77;;;;;;;20.55;51.13;101629.34;7395198;19;20027;-67
2023/08/11 09:24:24;;;;;;;0.90;0.70;;;;;;;20.64;50.57;101635.09;7395199;19;20503;-66
2023/08/11 09:26:53;;;;;;;1.20;0.70;;;;;;;20.74;49.85;101635.53;7396576;19;20018;-66
2023/08/11 09:29:31;;;;;;;2.95;0.52;;;;;;;20.83;49.66;101634.19;7394073;19;20006;-66
2023/08/11 09:31:59;;;;;;;3.92;0.70;;;;;;;20.92;49.56;101635.53;7395440;19;20022;-66
2023/08/11 09:34:28;;;;;;;2.70;0.80;;;;;;;21.02;49.92;101639.44;7394738;19;20010;-66
2023/08/11 09:36:57;;;;;;;1.35;0.50;;;;;;;21.10;49.54;101636.38;7396772;19;20037;-66
2023/08/11 09:39:29;;;;;;;2.53;0.50;;;;;;;21.17;49.77;101637.78;7395577;19;20049;-66
2023/08/11 09:41:58;;;;;;;0.77;0.50;;;;;;;21.19;49.99;101625.22;7395115;19;20010;-66
2023/08/11 09:44:29;;;;;;;0.70;0.40;;;;;;;21.22;49.82;101637.53;7394495;19;20018;-68
2023/08/11 09:46:58;;;;;;;2.08;0.55;;;;;;;21.26;49.96;101636.44;7394335;19;20078;-67
2023/08/11 09:49:26;;;;;;;1.15;0.47;;;;;;;21.29;50.02;101633.59;7396220;19;20007;-66
2023/08/11 09:51:57;;;;;;;2.60;0.73;;;;;;;21.35;48.83;101645.78;7396493;19;20509;-67
2023/08/11 09:54:26;;;;;;;2.33;0.77;;;;;;;21.40;49.71;101646.41;7394999;19;20014;-66
2023/08/11 09:56:56;;;;;;;1.95;0.60;;;;;;;21.42;49.29;101658.72;7395296;19;20497;-66
2023/08/11 09:59:27;;;;;;;1.42;0.63;;;;;;;21.42;49.52;101652.50;7394915;19;20022;-66
2023/08/11 10:02:02;;;;;;;3.72;1.05;;;;;;;21.40;49.18;101655.25;7396035;19;20007;-66
2023/08/11 10:04:36;;;;;;;2.13;0.80;;;;;;;21.37;49.96;101650.09;7393484;19;20018;-66
2023/08/11 10:07:10;;;;;;;1.17;0.43;;;;;;;21.30;49.90;101659.34;7395623;19;20019;-67
2023/08/11 10:09:39;;;;;;;0.93;0.45;;;;;;;21.24;49.96;101636.50;7393826;19;20355;-66
2023/08/11 10:12:10;;;;;;;1.75;0.80;;;;;;;21.25;50.20;101643.56;7393846;19;20014;-66
2023/08/11 10:14:41;;;;;;;1.20;0.50;;;;;;;21.26;50.13;101647.13;7393363;19;20485;-66
2023/08/11 10:17:14;;;;;;;1.55;0.40;;;;;;;21.27;49.66;101646.19;7395390;19;20082;-66
2023/08/11 10:19:43;;;;;;;0.63;0.35;;;;;;;21.27;49.47;101644.38;7393839;19;20047;-68
2023/08/11 10:22:13;;;;;;;5.65;1.00;;;;;;;21.24;49.67;101639.19;7394651;19;20343;-67
2023/08/11 10:24:43;;;;;;;0.70;0.60;;;;;;;21.29;49.87;101639.81;7393492;19;20027;-67
2023/08/11 10:27:12;;;;;;;1.40;0.50;;;;;;;21.32;49.81;101638.81;7394783;19;20311;-65
2023/08/11 10:29:43;;;;;;;1.98;0.60;;;;;;;21.39;49.92;101633.97;7393110;19;20414;-66
2023/08/11 10:32:14;;;;;;;2.35;1.13;;;;;;;21.43;49.43;101623.06;7394495;19;20151;-66
2023/08/11 10:34:43;;;;;;;1.08;0.50;;;;;;;21.51;49.91;101613.75;7392951;19;20343;-67
2023/08/11 10:37:11;;;;;;;1.33;0.40;;;;;;;21.56;49.75;101623.28;7394443;19;20007;-68
2023/08/11 10:39:42;;;;;;;5.93;1.02;;;;;;;21.59;49.23;101624.94;7393651;19;20481;-67
2023/08/11 10:42:13;;;;;;;2.72;0.80;;;;;;;21.61;49.20;101620.34;7395615;19;20082;-66
2023/08/11 10:44:46;;;;;;;1.95;0.70;;;;;;;21.67;49.12;101621.84;7393125;19;20015;-66
2023/08/11 10:47:20;;;;;;;1.17;0.57;;;;;;;21.71;48.77;101623.41;7394947;19;20007;-67
2023/08/11 10:49:49;;;;;;;1.67;0.80;;;;;;;21.75;49.25;101614.25;7394894;19;20097;-66
2023/08/11 10:52:20;;;;;;;3.40;0.88;;;;;;;21.82;48.81;101617.47;7394341;19;20025;-65
2023/08/11 10:54:52;;;;;;;1.42;0.85;;;;;;;21.86;49.19;101614.53;7392428;19;20478;-65
2023/08/11 10:57:21;;;;;;;1.02;0.43;;;;;;;21.90;49.36;101618.78;7394571;19;20017;-66
2023/08/11 10:59:49;;;;;;;1.85;0.70;;;;;;;21.95;48.77;101624.72;7393655;19;20013;-66
2023/08/11 11:02:22;;;;;;;4.00;0.73;;;;;;;22.01;48.97;101622.66;7394248;19;20018;-66
2023/08/11 11:04:52;;;;;;;4.00;1.38;;;;;;;22.08;49.20;101624.03;7391999;19;20021;-65
2023/08/11 11:07:24;;;;;;;1.60;0.70;;;;;;;22.18;48.89;101619.00;7393462;19;20027;-66
2023/08/11 11:09:54;;;;;;;3.58;1.00;;;;;;;22.21;47.83;101617.03;7394069;19;20011;-66
2023/08/11 11:12:23;;;;;;;1.02;0.88;;;;;;;22.27;48.26;101624.69;7393671;19;20016;-67
2023/08/11 11:14:52;;;;;;;1.10;0.73;;;;;;;22.30;48.70;101629.00;7390989;19;20361;-68
2023/08/11 11:17:23;;;;;;;1.60;0.70;;;;;;;22.33;48.24;101617.28;7394051;19;20031;-69
2023/08/11 11:19:52;;;;;;;3.40;1.08;;;;;;;22.32;48.48;101615.53;7392935;19;20014;-67
2023/08/11 11:22:21;;;;;;;2.03;0.90;;;;;;;22.34;48.18;101611.81;7393221;19;20431;-67
2023/08/11 11:24:51;;;;;;;2.83;0.90;;;;;;;22.44;48.29;101605.06;7392648;19;20031;-66
2023/08/11 11:27:20;;;;;;;1.23;0.80;;;;;;;22.58;48.35;101600.69;7393693;19;20094;-66
2023/08/11 11:29:48;;;;;;;2.15;0.70;;;;;;;22.70;48.07;101602.66;7393041;19;20002;-66
2023/08/11 11:32:19;;;;;;;1.67;1.02;;;;;;;22.77;47.50;101604.00;7391267;19;20086;-67
2023/08/11 11:34:50;;;;;;;2.38;0.85;;;;;;;22.81;47.66;101596.66;7395066;19;20383;-67